sensor_id;sensor_type;location;lat;lon;timestamp;temperature;humidity
296;DHT22;132;48.770;9.200;2023-01-20T00:01:54;1.10;1.00
296;DHT22;132;48.770;9.200;2023-01-20T00:04:20;1.10;1.00
296;DHT22;132;48.770;9.200;2023-01-20T00:06:46;1.10;1.00
296;DHT22;132;48.770;9.200;2023-01-20T00:09:14;1.10;1.00
296;DHT22;132;48.770;9.200;2023-01-20T00:11:42;1.00;1.00
296;DHT22;132;48.770;9.200;2023-01-20T00:14:09;1.00;1.00
296;DHT22;132;48.770;9.200;2023-01-20T00:16:36;1.10;1.00
296;DHT22;132;48.770;9.200;2023-01-20T00:19:03;1.00;1.00
296;DHT22;132;48.770;9.200;2023-01-20T00:21:29;1.10;1.00
296;DHT22;132;48.770;9.200;2023-01-20T00:23:56;1.00;1.00
296;DHT22;132;48.770;9.200;2023-01-20T00:26:23;1.20;1.00
296;DHT22;132;48.770;9.200;2023-01-20T00:28:53;1.10;1.00
296;DHT22;132;48.770;9.200;2023-01-20T00:31:22;1.20;1.00
296;DHT22;132;48.770;9.200;2023-01-20T00:33:50;1.00;1.00
296;DHT22;132;48.770;9.200;2023-01-20T00:36:19;1.10;1.00
296;DHT22;132;48.770;9.200;2023-01-20T00:38:46;1.00;1.00
296;DHT22;132;48.770;9.200;2023-01-20T00:41:12;1.10;1.00
296;DHT22;132;48.770;9.200;2023-01-20T00:43:39;1.10;1.00
296;DHT22;132;48.770;9.200;2023-01-20T00:46:06;1.10;1.00
296;DHT22;132;48.770;9.200;2023-01-20T00:48:33;1.10;1.00
296;DHT22;132;48.770;9.200;2023-01-20T00:51:01;1.10;1.00
296;DHT22;132;48.770;9.200;2023-01-20T00:53:28;1.10;1.00
296;DHT22;132;48.770;9.200;2023-01-20T00:55:55;1.10;1.00
296;DHT22;132;48.770;9.200;2023-01-20T00:58:21;1.10;1.00
296;DHT22;132;48.770;9.200;2023-01-20T01:00:49;1.10;1.00
296;DHT22;132;48.770;9.200;2023-01-20T01:03:16;1.10;1.00
296;DHT22;132;48.770;9.200;2023-01-20T01:05:43;1.10;1.00
296;DHT22;132;48.770;9.200;2023-01-20T01:08:10;1.10;1.00
296;DHT22;132;48.770;9.200;2023-01-20T01:10:37;1.10;1.00
296;DHT22;132;48.770;9.200;2023-01-20T01:13:04;1.00;1.00
296;DHT22;132;48.770;9.200;2023-01-20T01:15:31;0.90;1.00
296;DHT22;132;48.770;9.200;2023-01-20T01:17:58;0.90;1.00
296;DHT22;132;48.770;9.200;2023-01-20T01:20:25;1.00;1.00
296;DHT22;132;48.770;9.200;2023-01-20T01:22:52;1.00;1.00
296;DHT22;132;48.770;9.200;2023-01-20T01:25:18;1.00;1.00
296;DHT22;132;48.770;9.200;2023-01-20T01:27:45;1.00;1.00
296;DHT22;132;48.770;9.200;2023-01-20T01:30:12;1.00;1.00
296;DHT22;132;48.770;9.200;2023-01-20T01:32:38;1.30;1.00
296;DHT22;132;48.770;9.200;2023-01-20T01:35:05;1.00;1.00
296;DHT22;132;48.770;9.200;2023-01-20T01:37:31;1.10;1.00
296;DHT22;132;48.770;9.200;2023-01-20T01:39:58;1.10;1.00
296;DHT22;132;48.770;9.200;2023-01-20T01:42:25;1.10;1.00
296;DHT22;132;48.770;9.200;2023-01-20T01:47:41;1.10;1.00
296;DHT22;132;48.770;9.200;2023-01-20T01:50:13;1.20;1.00
296;DHT22;132;48.770;9.200;2023-01-20T01:52:42;1.00;1.00
296;DHT22;132;48.770;9.200;2023-01-20T01:55:10;1.20;1.00
296;DHT22;132;48.770;9.200;2023-01-20T01:57:37;1.10;1.00
296;DHT22;132;48.770;9.200;2023-01-20T02:00:05;1.10;1.00
296;DHT22;132;48.770;9.200;2023-01-20T02:02:40;1.10;1.00
296;DHT22;132;48.770;9.200;2023-01-20T02:05:09;1.00;1.00
296;DHT22;132;48.770;9.200;2023-01-20T02:07:36;0.90;1.00
296;DHT22;132;48.770;9.200;2023-01-20T02:10:03;1.10;1.00
296;DHT22;132;48.770;9.200;2023-01-20T02:12:29;1.10;1.00
296;DHT22;132;48.770;9.200;2023-01-20T02:14:58;1.10;1.00
296;DHT22;132;48.770;9.200;2023-01-20T02:17:36;1.10;1.00
296;DHT22;132;48.770;9.200;2023-01-20T02:23:07;1.10;1.00
296;DHT22;132;48.770;9.200;2023-01-20T02:34:37;1.20;1.00
296;DHT22;132;48.770;9.200;2023-01-20T02:37:46;1.20;1.00
296;DHT22;132;48.770;9.200;2023-01-20T02:40:26;1.30;1.00
296;DHT22;132;48.770;9.200;2023-01-20T02:43:28;1.30;1.00
296;DHT22;132;48.770;9.200;2023-01-20T02:46:09;1.20;1.00
296;DHT22;132;48.770;9.200;2023-01-20T02:51:17;1.30;1.00
296;DHT22;132;48.770;9.200;2023-01-20T02:53:50;1.20;1.00
296;DHT22;132;48.770;9.200;2023-01-20T02:56:20;1.20;1.00
296;DHT22;132;48.770;9.200;2023-01-20T02:59:07;1.20;1.00
296;DHT22;132;48.770;9.200;2023-01-20T03:02:02;1.20;1.00
296;DHT22;132;48.770;9.200;2023-01-20T03:04:35;1.20;1.00
296;DHT22;132;48.770;9.200;2023-01-20T03:07:02;1.20;1.00
296;DHT22;132;48.770;9.200;2023-01-20T03:09:34;1.20;1.00
296;DHT22;132;48.770;9.200;2023-01-20T03:12:24;1.20;1.00
296;DHT22;132;48.770;9.200;2023-01-20T03:14:52;1.20;1.00
296;DHT22;132;48.770;9.200;2023-01-20T03:17:19;1.20;1.00
296;DHT22;132;48.770;9.200;2023-01-20T03:19:46;1.20;1.00
296;DHT22;132;48.770;9.200;2023-01-20T03:22:13;1.20;1.00
296;DHT22;132;48.770;9.200;2023-01-20T03:24:40;1.20;1.00
296;DHT22;132;48.770;9.200;2023-01-20T03:27:09;1.20;1.00
296;DHT22;132;48.770;9.200;2023-01-20T03:29:36;1.20;1.00
296;DHT22;132;48.770;9.200;2023-01-20T03:32:04;1.20;1.00
296;DHT22;132;48.770;9.200;2023-01-20T03:34:34;1.20;1.00
296;DHT22;132;48.770;9.200;2023-01-20T03:37:02;1.20;1.00
296;DHT22;132;48.770;9.200;2023-01-20T03:39:30;1.20;1.00
296;DHT22;132;48.770;9.200;2023-01-20T03:44:37;1.20;1.00
296;DHT22;132;48.770;9.200;2023-01-20T03:47:24;0.60;1.00
296;DHT22;132;48.770;9.200;2023-01-20T03:50:17;1.20;1.00
296;DHT22;132;48.770;9.200;2023-01-20T03:55:49;1.20;1.00
296;DHT22;132;48.770;9.200;2023-01-20T03:58:32;1.20;1.00
296;DHT22;132;48.770;9.200;2023-01-20T04:01:02;1.20;1.00
296;DHT22;132;48.770;9.200;2023-01-20T04:03:32;1.20;1.00
296;DHT22;132;48.770;9.200;2023-01-20T04:06:02;1.20;1.00
296;DHT22;132;48.770;9.200;2023-01-20T04:08:33;1.30;1.00
296;DHT22;132;48.770;9.200;2023-01-20T04:11:02;1.20;1.00
296;DHT22;132;48.770;9.200;2023-01-20T04:13:29;1.20;1.00
296;DHT22;132;48.770;9.200;2023-01-20T04:15:57;1.20;1.00
296;DHT22;132;48.770;9.200;2023-01-20T04:18:24;1.20;1.00
296;DHT22;132;48.770;9.200;2023-01-20T04:20:59;1.20;1.00
296;DHT22;132;48.770;9.200;2023-01-20T04:23:45;1.30;1.00
296;DHT22;132;48.770;9.200;2023-01-20T04:26:13;1.30;1.00
296;DHT22;132;48.770;9.200;2023-01-20T04:28:39;1.20;1.00
296;DHT22;132;48.770;9.200;2023-01-20T04:31:06;1.20;1.00
296;DHT22;132;48.770;9.200;2023-01-20T04:33:36;1.20;1.00
296;DHT22;132;48.770;9.200;2023-01-20T04:36:03;1.20;1.00
296;DHT22;132;48.770;9.200;2023-01-20T04:38:29;1.10;1.00
296;DHT22;132;48.770;9.200;2023-01-20T04:40:56;1.00;1.00
296;DHT22;132;48.770;9.200;2023-01-20T04:43:22;1.00;1.00
296;DHT22;132;48.770;9.200;2023-01-20T04:45:49;1.00;1.00
296;DHT22;132;48.770;9.200;2023-01-20T04:48:15;1.00;1.00
296;DHT22;132;48.770;9.200;2023-01-20T04:50:42;1.00;1.00
296;DHT22;132;48.770;9.200;2023-01-20T04:53:13;1.10;1.00
296;DHT22;132;48.770;9.200;2023-01-20T04:55:42;1.00;1.00
296;DHT22;132;48.770;9.200;2023-01-20T04:58:09;1.00;1.00
296;DHT22;132;48.770;9.200;2023-01-20T05:00:35;1.00;1.00
296;DHT22;132;48.770;9.200;2023-01-20T05:03:02;1.10;1.00
296;DHT22;132;48.770;9.200;2023-01-20T05:05:28;1.30;1.00
296;DHT22;132;48.770;9.200;2023-01-20T05:07:55;1.10;1.00
296;DHT22;132;48.770;9.200;2023-01-20T05:10:22;1.10;1.00
296;DHT22;132;48.770;9.200;2023-01-20T05:12:48;0.90;1.00
296;DHT22;132;48.770;9.200;2023-01-20T05:15:15;1.20;1.00
296;DHT22;132;48.770;9.200;2023-01-20T05:17:41;1.30;1.00
296;DHT22;132;48.770;9.200;2023-01-20T05:20:08;1.20;1.00
296;DHT22;132;48.770;9.200;2023-01-20T05:22:35;1.30;1.00
296;DHT22;132;48.770;9.200;2023-01-20T05:25:01;1.30;1.00
296;DHT22;132;48.770;9.200;2023-01-20T05:27:28;1.20;1.00
296;DHT22;132;48.770;9.200;2023-01-20T05:29:54;1.20;1.00
296;DHT22;132;48.770;9.200;2023-01-20T05:32:20;1.20;1.00
296;DHT22;132;48.770;9.200;2023-01-20T05:34:47;1.20;1.00
296;DHT22;132;48.770;9.200;2023-01-20T05:37:16;1.20;1.00
296;DHT22;132;48.770;9.200;2023-01-20T05:39:43;1.20;1.00
296;DHT22;132;48.770;9.200;2023-01-20T05:42:09;1.20;1.00
296;DHT22;132;48.770;9.200;2023-01-20T05:44:36;1.20;1.00
296;DHT22;132;48.770;9.200;2023-01-20T05:47:02;1.10;1.00
296;DHT22;132;48.770;9.200;2023-01-20T05:49:29;1.10;1.00
296;DHT22;132;48.770;9.200;2023-01-20T05:51:55;1.10;1.00
296;DHT22;132;48.770;9.200;2023-01-20T05:54:21;1.10;1.00
296;DHT22;132;48.770;9.200;2023-01-20T05:56:48;1.10;1.00
296;DHT22;132;48.770;9.200;2023-01-20T05:59:14;1.10;1.00
296;DHT22;132;48.770;9.200;2023-01-20T06:01:41;1.10;1.00
296;DHT22;132;48.770;9.200;2023-01-20T06:04:08;1.10;1.00
296;DHT22;132;48.770;9.200;2023-01-20T06:06:34;1.10;1.00
296;DHT22;132;48.770;9.200;2023-01-20T06:09:01;1.00;1.00
296;DHT22;132;48.770;9.200;2023-01-20T06:11:27;0.90;1.00
296;DHT22;132;48.770;9.200;2023-01-20T06:13:53;0.90;1.00
296;DHT22;132;48.770;9.200;2023-01-20T06:16:20;0.90;1.00
296;DHT22;132;48.770;9.200;2023-01-20T06:18:46;0.90;1.00
296;DHT22;132;48.770;9.200;2023-01-20T06:21:12;0.90;1.00
296;DHT22;132;48.770;9.200;2023-01-20T06:23:39;0.90;1.00
296;DHT22;132;48.770;9.200;2023-01-20T06:26:08;0.90;1.00
296;DHT22;132;48.770;9.200;2023-01-20T06:28:35;0.90;1.00
296;DHT22;132;48.770;9.200;2023-01-20T06:31:07;1.00;1.00
296;DHT22;132;48.770;9.200;2023-01-20T06:33:34;0.90;1.00
296;DHT22;132;48.770;9.200;2023-01-20T06:36:01;0.90;1.00
296;DHT22;132;48.770;9.200;2023-01-20T06:38:30;0.80;1.00
296;DHT22;132;48.770;9.200;2023-01-20T06:41:05;0.90;1.00
296;DHT22;132;48.770;9.200;2023-01-20T06:43:33;0.90;1.00
296;DHT22;132;48.770;9.200;2023-01-20T06:46:02;0.80;1.00
296;DHT22;132;48.770;9.200;2023-01-20T06:48:29;0.80;1.00
296;DHT22;132;48.770;9.200;2023-01-20T06:51:07;0.80;1.00
296;DHT22;132;48.770;9.200;2023-01-20T06:53:34;0.80;1.00
296;DHT22;132;48.770;9.200;2023-01-20T06:56:01;0.80;1.00
296;DHT22;132;48.770;9.200;2023-01-20T06:58:29;0.80;1.00
296;DHT22;132;48.770;9.200;2023-01-20T07:00:57;0.80;1.00
296;DHT22;132;48.770;9.200;2023-01-20T07:03:28;0.80;1.00
296;DHT22;132;48.770;9.200;2023-01-20T07:05:59;0.80;1.00
296;DHT22;132;48.770;9.200;2023-01-20T07:08:27;0.90;1.00
296;DHT22;132;48.770;9.200;2023-01-20T07:10:53;0.90;1.00
296;DHT22;132;48.770;9.200;2023-01-20T07:13:19;1.00;1.00
296;DHT22;132;48.770;9.200;2023-01-20T07:15:46;1.00;1.00
296;DHT22;132;48.770;9.200;2023-01-20T07:18:12;1.00;1.00
296;DHT22;132;48.770;9.200;2023-01-20T07:20:39;1.00;1.00
296;DHT22;132;48.770;9.200;2023-01-20T07:23:06;1.00;1.00
296;DHT22;132;48.770;9.200;2023-01-20T07:25:32;1.10;1.00
296;DHT22;132;48.770;9.200;2023-01-20T07:27:58;1.00;1.00
296;DHT22;132;48.770;9.200;2023-01-20T07:30:25;1.10;1.00
296;DHT22;132;48.770;9.200;2023-01-20T07:32:52;1.10;1.00
296;DHT22;132;48.770;9.200;2023-01-20T07:35:18;1.40;1.00
296;DHT22;132;48.770;9.200;2023-01-20T07:37:45;1.10;1.00
296;DHT22;132;48.770;9.200;2023-01-20T07:40:11;1.10;1.00
296;DHT22;132;48.770;9.200;2023-01-20T07:42:38;1.40;1.00
296;DHT22;132;48.770;9.200;2023-01-20T07:45:05;1.20;1.00
296;DHT22;132;48.770;9.200;2023-01-20T07:47:31;1.20;1.00
296;DHT22;132;48.770;9.200;2023-01-20T07:49:57;1.10;1.00
296;DHT22;132;48.770;9.200;2023-01-20T07:52:24;1.20;1.00
296;DHT22;132;48.770;9.200;2023-01-20T07:54:50;1.20;1.00
296;DHT22;132;48.770;9.200;2023-01-20T07:57:16;1.30;1.00
296;DHT22;132;48.770;9.200;2023-01-20T07:59:43;1.30;1.00
296;DHT22;132;48.770;9.200;2023-01-20T08:02:09;1.90;1.00
296;DHT22;132;48.770;9.200;2023-01-20T08:04:35;1.50;1.00
296;DHT22;132;48.770;9.200;2023-01-20T08:07:02;1.60;1.00
296;DHT22;132;48.770;9.200;2023-01-20T08:09:28;1.70;1.00
296;DHT22;132;48.770;9.200;2023-01-20T08:11:55;1.70;1.00
296;DHT22;132;48.770;9.200;2023-01-20T08:14:21;1.70;1.00
296;DHT22;132;48.770;9.200;2023-01-20T08:16:47;1.70;1.00
296;DHT22;132;48.770;9.200;2023-01-20T08:19:14;1.80;1.00
296;DHT22;132;48.770;9.200;2023-01-20T08:21:40;1.80;1.00
296;DHT22;132;48.770;9.200;2023-01-20T08:24:08;1.80;1.00
296;DHT22;132;48.770;9.200;2023-01-20T08:26:35;1.80;1.00
296;DHT22;132;48.770;9.200;2023-01-20T08:29:07;1.70;1.00
296;DHT22;132;48.770;9.200;2023-01-20T08:31:35;1.80;1.00
296;DHT22;132;48.770;9.200;2023-01-20T08:34:02;1.60;1.00
296;DHT22;132;48.770;9.200;2023-01-20T08:36:31;1.80;1.00
296;DHT22;132;48.770;9.200;2023-01-20T08:38:59;1.80;1.00
296;DHT22;132;48.770;9.200;2023-01-20T08:41:31;1.80;1.00
296;DHT22;132;48.770;9.200;2023-01-20T08:43:59;1.80;1.00
296;DHT22;132;48.770;9.200;2023-01-20T08:46:25;1.60;1.00
296;DHT22;132;48.770;9.200;2023-01-20T08:48:52;1.80;1.00
296;DHT22;132;48.770;9.200;2023-01-20T08:51:25;1.80;1.00
296;DHT22;132;48.770;9.200;2023-01-20T08:53:52;1.80;1.00
296;DHT22;132;48.770;9.200;2023-01-20T08:56:19;1.80;1.00
296;DHT22;132;48.770;9.200;2023-01-20T08:58:45;1.80;1.00
296;DHT22;132;48.770;9.200;2023-01-20T09:01:18;1.80;1.00
296;DHT22;132;48.770;9.200;2023-01-20T09:03:45;1.80;1.00
296;DHT22;132;48.770;9.200;2023-01-20T09:06:13;1.90;1.00
296;DHT22;132;48.770;9.200;2023-01-20T09:08:39;1.90;1.00
296;DHT22;132;48.770;9.200;2023-01-20T09:11:09;1.90;1.00
296;DHT22;132;48.770;9.200;2023-01-20T09:13:36;2.00;1.00
296;DHT22;132;48.770;9.200;2023-01-20T09:16:03;1.90;1.00
296;DHT22;132;48.770;9.200;2023-01-20T09:18:33;2.00;1.00
296;DHT22;132;48.770;9.200;2023-01-20T09:21:00;1.90;1.00
296;DHT22;132;48.770;9.200;2023-01-20T09:23:28;1.80;1.00
296;DHT22;132;48.770;9.200;2023-01-20T09:25:54;1.80;1.00
296;DHT22;132;48.770;9.200;2023-01-20T09:28:23;1.70;1.00
296;DHT22;132;48.770;9.200;2023-01-20T09:30:56;1.70;1.00
296;DHT22;132;48.770;9.200;2023-01-20T09:33:23;1.70;1.00
296;DHT22;132;48.770;9.200;2023-01-20T09:35:56;1.20;1.00
296;DHT22;132;48.770;9.200;2023-01-20T09:38:23;1.90;1.00
296;DHT22;132;48.770;9.200;2023-01-20T09:41:18;1.90;1.00
296;DHT22;132;48.770;9.200;2023-01-20T09:53:39;1.90;1.00
296;DHT22;132;48.770;9.200;2023-01-20T10:04:00;1.80;1.00
296;DHT22;132;48.770;9.200;2023-01-20T10:06:42;1.70;1.00
296;DHT22;132;48.770;9.200;2023-01-20T10:11:58;1.80;1.00
296;DHT22;132;48.770;9.200;2023-01-20T10:14:35;1.60;1.00
296;DHT22;132;48.770;9.200;2023-01-20T10:17:19;1.60;1.00
296;DHT22;132;48.770;9.200;2023-01-20T10:20:02;1.60;1.00
296;DHT22;132;48.770;9.200;2023-01-20T10:22:35;1.60;1.00
296;DHT22;132;48.770;9.200;2023-01-20T10:25:11;2.30;1.00
296;DHT22;132;48.770;9.200;2023-01-20T10:27:44;1.60;1.00
296;DHT22;132;48.770;9.200;2023-01-20T10:30:15;1.60;1.00
296;DHT22;132;48.770;9.200;2023-01-20T10:32:51;1.40;1.00
296;DHT22;132;48.770;9.200;2023-01-20T10:35:24;1.60;1.00
296;DHT22;132;48.770;9.200;2023-01-20T10:37:51;1.60;1.00
296;DHT22;132;48.770;9.200;2023-01-20T10:40:24;1.50;1.00
296;DHT22;132;48.770;9.200;2023-01-20T10:42:58;1.60;1.00
296;DHT22;132;48.770;9.200;2023-01-20T10:54:39;1.50;1.00
296;DHT22;132;48.770;9.200;2023-01-20T10:56:48;1.50;1.00
296;DHT22;132;48.770;9.200;2023-01-20T10:59:36;1.60;1.00
296;DHT22;132;48.770;9.200;2023-01-20T11:02:31;1.60;1.00
296;DHT22;132;48.770;9.200;2023-01-20T11:05:43;1.60;1.00
296;DHT22;132;48.770;9.200;2023-01-20T11:08:18;1.80;1.00
296;DHT22;132;48.770;9.200;2023-01-20T11:10:48;1.60;1.00
296;DHT22;132;48.770;9.200;2023-01-20T11:13:17;1.60;1.00
296;DHT22;132;48.770;9.200;2023-01-20T11:15:46;1.80;1.00
296;DHT22;132;48.770;9.200;2023-01-20T11:20:59;1.60;1.00
296;DHT22;132;48.770;9.200;2023-01-20T11:31:39;2.20;1.00
296;DHT22;132;48.770;9.200;2023-01-20T11:34:31;2.40;1.00
296;DHT22;132;48.770;9.200;2023-01-20T11:42:16;2.80;1.00
296;DHT22;132;48.770;9.200;2023-01-20T11:44:47;2.90;1.00
296;DHT22;132;48.770;9.200;2023-01-20T11:52:43;3.00;1.00
296;DHT22;132;48.770;9.200;2023-01-20T11:57:49;3.10;1.00
296;DHT22;132;48.770;9.200;2023-01-20T12:03:17;2.90;1.00
296;DHT22;132;48.770;9.200;2023-01-20T12:11:00;2.60;1.00
296;DHT22;132;48.770;9.200;2023-01-20T12:13:34;2.50;1.00
296;DHT22;132;48.770;9.200;2023-01-20T12:16:22;2.50;1.00
296;DHT22;132;48.770;9.200;2023-01-20T12:19:03;2.50;1.00
296;DHT22;132;48.770;9.200;2023-01-20T12:21:39;2.40;1.00
296;DHT22;132;48.770;9.200;2023-01-20T12:24:17;2.40;1.00
296;DHT22;132;48.770;9.200;2023-01-20T12:26:47;2.40;1.00
296;DHT22;132;48.770;9.200;2023-01-20T12:31:40;2.50;1.00
296;DHT22;132;48.770;9.200;2023-01-20T12:34:13;2.50;1.00
296;DHT22;132;48.770;9.200;2023-01-20T12:36:56;2.60;1.00
296;DHT22;132;48.770;9.200;2023-01-20T12:44:50;2.80;1.00
296;DHT22;132;48.770;9.200;2023-01-20T12:47:44;2.80;1.00
296;DHT22;132;48.770;9.200;2023-01-20T12:50:33;2.90;1.00
296;DHT22;132;48.770;9.200;2023-01-20T12:53:32;2.90;1.00
296;DHT22;132;48.770;9.200;2023-01-20T13:01:59;3.00;1.00
296;DHT22;132;48.770;9.200;2023-01-20T13:15:25;2.90;1.00
296;DHT22;132;48.770;9.200;2023-01-20T13:20:45;2.90;1.00
296;DHT22;132;48.770;9.200;2023-01-20T13:23:14;2.90;1.00
296;DHT22;132;48.770;9.200;2023-01-20T13:25:43;2.90;1.00
296;DHT22;132;48.770;9.200;2023-01-20T13:28:30;2.80;1.00
296;DHT22;132;48.770;9.200;2023-01-20T13:30:58;3.10;1.00
296;DHT22;132;48.770;9.200;2023-01-20T13:36:20;2.90;1.00
296;DHT22;132;48.770;9.200;2023-01-20T13:41:50;2.90;1.00
296;DHT22;132;48.770;9.200;2023-01-20T13:44:37;3.00;1.00
296;DHT22;132;48.770;9.200;2023-01-20T13:47:08;3.00;1.00
296;DHT22;132;48.770;9.200;2023-01-20T13:49:52;3.60;1.00
296;DHT22;132;48.770;9.200;2023-01-20T14:00:46;3.00;1.00
296;DHT22;132;48.770;9.200;2023-01-20T14:03:33;3.20;1.00
296;DHT22;132;48.770;9.200;2023-01-20T14:08:46;3.20;1.00
296;DHT22;132;48.770;9.200;2023-01-20T14:11:24;3.30;1.00
296;DHT22;132;48.770;9.200;2023-01-20T14:13:58;3.20;1.00
296;DHT22;132;48.770;9.200;2023-01-20T14:16:36;3.30;1.00
296;DHT22;132;48.770;9.200;2023-01-20T14:19:23;3.30;1.00
296;DHT22;132;48.770;9.200;2023-01-20T14:21:54;3.30;1.00
296;DHT22;132;48.770;9.200;2023-01-20T14:24:43;3.20;1.00
296;DHT22;132;48.770;9.200;2023-01-20T14:29:43;3.20;1.00
296;DHT22;132;48.770;9.200;2023-01-20T14:32:18;3.20;1.00
296;DHT22;132;48.770;9.200;2023-01-20T14:34:45;3.20;1.00
296;DHT22;132;48.770;9.200;2023-01-20T14:39:54;3.30;1.00
296;DHT22;132;48.770;9.200;2023-01-20T14:42:26;3.30;1.00
296;DHT22;132;48.770;9.200;2023-01-20T14:44:55;3.50;1.00
296;DHT22;132;48.770;9.200;2023-01-20T14:47:23;3.30;1.00
296;DHT22;132;48.770;9.200;2023-01-20T14:49:52;3.30;1.00
296;DHT22;132;48.770;9.200;2023-01-20T14:52:26;3.30;1.00
296;DHT22;132;48.770;9.200;2023-01-20T14:54:54;3.20;1.00
296;DHT22;132;48.770;9.200;2023-01-20T15:00:12;3.10;1.00
296;DHT22;132;48.770;9.200;2023-01-20T15:02:42;2.90;1.00
296;DHT22;132;48.770;9.200;2023-01-20T15:05:22;2.70;1.00
296;DHT22;132;48.770;9.200;2023-01-20T15:10:40;2.50;1.00
296;DHT22;132;48.770;9.200;2023-01-20T15:13:28;2.40;1.00
296;DHT22;132;48.770;9.200;2023-01-20T15:16:18;2.30;1.00
296;DHT22;132;48.770;9.200;2023-01-20T15:21:45;2.10;1.00
296;DHT22;132;48.770;9.200;2023-01-20T15:24:22;2.00;1.00
296;DHT22;132;48.770;9.200;2023-01-20T15:26:51;2.00;1.00
296;DHT22;132;48.770;9.200;2023-01-20T15:29:23;1.90;1.00
296;DHT22;132;48.770;9.200;2023-01-20T15:31:50;1.80;1.00
296;DHT22;132;48.770;9.200;2023-01-20T15:34:17;1.70;1.00
296;DHT22;132;48.770;9.200;2023-01-20T15:36:44;1.70;1.00
296;DHT22;132;48.770;9.200;2023-01-20T15:39:15;1.60;1.00
296;DHT22;132;48.770;9.200;2023-01-20T15:41:42;1.60;1.00
296;DHT22;132;48.770;9.200;2023-01-20T15:44:09;1.80;1.00
296;DHT22;132;48.770;9.200;2023-01-20T15:46:36;1.40;1.00
296;DHT22;132;48.770;9.200;2023-01-20T15:49:04;1.40;1.00
296;DHT22;132;48.770;9.200;2023-01-20T15:51:31;2.00;1.00
296;DHT22;132;48.770;9.200;2023-01-20T15:53:58;1.20;1.00
296;DHT22;132;48.770;9.200;2023-01-20T15:56:27;1.20;1.00
296;DHT22;132;48.770;9.200;2023-01-20T15:58:55;1.30;1.00
296;DHT22;132;48.770;9.200;2023-01-20T16:01:24;1.20;1.00
296;DHT22;132;48.770;9.200;2023-01-20T16:03:51;1.20;1.00
296;DHT22;132;48.770;9.200;2023-01-20T16:06:19;1.20;1.00
296;DHT22;132;48.770;9.200;2023-01-20T16:08:48;1.10;1.00
296;DHT22;132;48.770;9.200;2023-01-20T16:11:16;1.20;1.00
296;DHT22;132;48.770;9.200;2023-01-20T16:13:43;1.40;1.00
296;DHT22;132;48.770;9.200;2023-01-20T16:16:15;1.00;1.00
296;DHT22;132;48.770;9.200;2023-01-20T16:18:42;0.90;1.00
296;DHT22;132;48.770;9.200;2023-01-20T16:21:14;0.90;1.00
296;DHT22;132;48.770;9.200;2023-01-20T16:23:41;0.90;1.00
296;DHT22;132;48.770;9.200;2023-01-20T16:26:29;0.80;1.00
296;DHT22;132;48.770;9.200;2023-01-20T16:28:57;0.90;1.00
296;DHT22;132;48.770;9.200;2023-01-20T16:31:24;0.80;1.00
296;DHT22;132;48.770;9.200;2023-01-20T16:33:53;0.50;1.00
296;DHT22;132;48.770;9.200;2023-01-20T16:36:21;0.70;1.00
296;DHT22;132;48.770;9.200;2023-01-20T16:38:48;0.70;1.00
296;DHT22;132;48.770;9.200;2023-01-20T16:41:26;0.60;1.00
296;DHT22;132;48.770;9.200;2023-01-20T16:43:54;0.60;1.00
296;DHT22;132;48.770;9.200;2023-01-20T16:46:26;0.50;1.00
296;DHT22;132;48.770;9.200;2023-01-20T16:48:53;0.50;1.00
296;DHT22;132;48.770;9.200;2023-01-20T16:51:24;0.40;1.00
296;DHT22;132;48.770;9.200;2023-01-20T16:53:52;0.40;1.00
296;DHT22;132;48.770;9.200;2023-01-20T16:56:21;0.40;1.00
296;DHT22;132;48.770;9.200;2023-01-20T16:58:49;0.30;1.00
296;DHT22;132;48.770;9.200;2023-01-20T17:01:17;0.40;1.00
296;DHT22;132;48.770;9.200;2023-01-20T17:03:50;0.40;1.00
296;DHT22;132;48.770;9.200;2023-01-20T17:06:18;0.30;1.00
296;DHT22;132;48.770;9.200;2023-01-20T17:08:50;0.30;1.00
296;DHT22;132;48.770;9.200;2023-01-20T17:13:50;0.30;1.00
296;DHT22;132;48.770;9.200;2023-01-20T17:16:18;0.30;1.00
296;DHT22;132;48.770;9.200;2023-01-20T17:18:49;0.20;1.00
296;DHT22;132;48.770;9.200;2023-01-20T17:21:16;0.20;1.00
296;DHT22;132;48.770;9.200;2023-01-20T17:23:49;0.20;1.00
296;DHT22;132;48.770;9.200;2023-01-20T17:26:16;0.20;1.00
296;DHT22;132;48.770;9.200;2023-01-20T17:28:42;0.20;1.00
296;DHT22;132;48.770;9.200;2023-01-20T17:31:09;0.20;1.00
296;DHT22;132;48.770;9.200;2023-01-20T17:33:35;0.30;1.00
296;DHT22;132;48.770;9.200;2023-01-20T17:36:03;0.30;1.00
296;DHT22;132;48.770;9.200;2023-01-20T17:38:33;0.30;1.00
296;DHT22;132;48.770;9.200;2023-01-20T17:41:03;0.40;1.00
296;DHT22;132;48.770;9.200;2023-01-20T17:44:04;0.40;1.00
296;DHT22;132;48.770;9.200;2023-01-20T17:46:26;0.40;1.00
296;DHT22;132;48.770;9.200;2023-01-20T17:48:56;0.40;1.00
296;DHT22;132;48.770;9.200;2023-01-20T17:51:25;0.40;1.00
296;DHT22;132;48.770;9.200;2023-01-20T17:53:52;0.40;1.00
296;DHT22;132;48.770;9.200;2023-01-20T17:56:20;0.40;1.00
296;DHT22;132;48.770;9.200;2023-01-20T17:58:48;0.40;1.00
296;DHT22;132;48.770;9.200;2023-01-20T18:03:41;0.50;1.00
296;DHT22;132;48.770;9.200;2023-01-20T18:06:09;0.50;1.00
296;DHT22;132;48.770;9.200;2023-01-20T18:08:36;0.50;1.00
296;DHT22;132;48.770;9.200;2023-01-20T18:11:11;0.40;1.00
296;DHT22;132;48.770;9.200;2023-01-20T18:13:37;0.40;1.00
296;DHT22;132;48.770;9.200;2023-01-20T18:16:06;0.60;1.00
296;DHT22;132;48.770;9.200;2023-01-20T18:18:32;0.40;1.00
296;DHT22;132;48.770;9.200;2023-01-20T18:23:34;0.40;1.00
296;DHT22;132;48.770;9.200;2023-01-20T18:26:02;0.40;1.00
296;DHT22;132;48.770;9.200;2023-01-20T18:28:29;0.30;1.00
296;DHT22;132;48.770;9.200;2023-01-20T18:31:03;0.50;1.00
296;DHT22;132;48.770;9.200;2023-01-20T18:33:34;0.30;1.00
296;DHT22;132;48.770;9.200;2023-01-20T18:36:05;0.20;1.00
296;DHT22;132;48.770;9.200;2023-01-20T18:38:33;0.20;1.00
296;DHT22;132;48.770;9.200;2023-01-20T18:41:01;0.20;1.00
296;DHT22;132;48.770;9.200;2023-01-20T18:43:28;0.10;1.00
296;DHT22;132;48.770;9.200;2023-01-20T18:45:55;0.00;1.00
296;DHT22;132;48.770;9.200;2023-01-20T18:48:21;0.00;1.00
296;DHT22;132;48.770;9.200;2023-01-20T18:50:48;0.00;1.00
296;DHT22;132;48.770;9.200;2023-01-20T18:53:14;0.00;1.00
296;DHT22;132;48.770;9.200;2023-01-20T18:55:40;0.00;1.00
296;DHT22;132;48.770;9.200;2023-01-20T18:58:07;-0.10;1.00
296;DHT22;132;48.770;9.200;2023-01-20T19:00:34;-0.10;1.00
296;DHT22;132;48.770;9.200;2023-01-20T19:03:01;-0.10;1.00
296;DHT22;132;48.770;9.200;2023-01-20T19:05:27;-0.10;1.00
296;DHT22;132;48.770;9.200;2023-01-20T19:07:56;-0.10;1.00
296;DHT22;132;48.770;9.200;2023-01-20T19:10:22;-0.20;1.00
296;DHT22;132;48.770;9.200;2023-01-20T19:12:50;-0.20;1.00
296;DHT22;132;48.770;9.200;2023-01-20T19:15:17;-0.30;1.00
296;DHT22;132;48.770;9.200;2023-01-20T19:17:43;-0.30;1.00
296;DHT22;132;48.770;9.200;2023-01-20T19:20:10;-0.10;1.00
296;DHT22;132;48.770;9.200;2023-01-20T19:22:37;-0.40;1.00
296;DHT22;132;48.770;9.200;2023-01-20T19:25:04;-0.40;1.00
296;DHT22;132;48.770;9.200;2023-01-20T19:27:31;-0.30;1.00
296;DHT22;132;48.770;9.200;2023-01-20T19:29:57;-0.40;1.00
296;DHT22;132;48.770;9.200;2023-01-20T19:32:23;-0.40;1.00
296;DHT22;132;48.770;9.200;2023-01-20T19:34:50;-0.40;1.00
296;DHT22;132;48.770;9.200;2023-01-20T19:37:16;-0.30;1.00
296;DHT22;132;48.770;9.200;2023-01-20T19:39:43;-0.40;1.00
296;DHT22;132;48.770;9.200;2023-01-20T19:42:09;-0.30;1.00
296;DHT22;132;48.770;9.200;2023-01-20T19:44:36;-0.30;1.00
296;DHT22;132;48.770;9.200;2023-01-20T19:47:02;-0.30;1.00
296;DHT22;132;48.770;9.200;2023-01-20T19:49:29;-0.40;1.00
296;DHT22;132;48.770;9.200;2023-01-20T19:51:56;-0.30;1.00
296;DHT22;132;48.770;9.200;2023-01-20T19:54:22;-0.30;1.00
296;DHT22;132;48.770;9.200;2023-01-20T19:56:49;-0.30;1.00
296;DHT22;132;48.770;9.200;2023-01-20T19:59:16;-0.40;1.00